createdAt,value
2022-10-05T00:00:42.310Z,100944.69
2022-10-05T00:05:45.300Z,100961.69
2022-10-05T00:10:46.990Z,100972.00
2022-10-05T00:15:48.806Z,100983.41
2022-10-05T00:20:50.300Z,100981.03
2022-10-05T00:25:51.841Z,100966.94
2022-10-05T00:30:57.242Z,100961.09
2022-10-05T00:35:58.716Z,100928.75
2022-10-05T00:41:10.591Z,100922.97
2022-10-05T00:46:39.483Z,100911.25
2022-10-05T00:51:41.211Z,100902.63
2022-10-05T00:57:00.856Z,100919.78
2022-10-05T01:02:23.744Z,100905.22
2022-10-05T01:07:51.570Z,100910.63
2022-10-05T01:12:52.847Z,100900.53
2022-10-05T01:18:08.722Z,100899.53
2022-10-05T01:23:40.233Z,100902.75
2022-10-05T01:28:45.936Z,100898.66
2022-10-05T01:33:57.198Z,100907.59
2022-10-05T01:39:10.600Z,100904.50
2022-10-05T01:44:14.415Z,100891.06
2022-10-05T01:49:18.551Z,100881.63
2022-10-05T01:54:27.402Z,100877.94
2022-10-05T01:59:36.556Z,100879.94
2022-10-05T02:10:08.716Z,100857.56
2022-10-05T02:15:18.758Z,100855.06
2022-10-05T02:20:23.811Z,100845.94
2022-10-05T02:25:28.423Z,100853.16
2022-10-05T02:30:30.438Z,100839.66
2022-10-05T02:35:31.937Z,100851.06
2022-10-05T02:40:58.587Z,100844.44
2022-10-05T02:46:22.103Z,100826.00
2022-10-05T02:51:28.694Z,100836.50
2022-10-05T02:56:38.020Z,100827.06
2022-10-05T03:01:50.573Z,100822.47
2022-10-05T03:06:55.307Z,100819.63
2022-10-05T03:12:11.070Z,100801.53
2022-10-05T03:17:23.907Z,100817.09
2022-10-05T03:22:51.055Z,100795.03
2022-10-05T03:28:07.543Z,100799.03
2022-10-05T03:33:42.241Z,100801.66
2022-10-05T03:39:02.628Z,100801.06
2022-10-05T03:44:25.146Z,100785.44
2022-10-05T03:49:49.600Z,100799.06
2022-10-05T03:55:06.954Z,100780.06
2022-10-05T04:00:17.234Z,100776.88
2022-10-05T04:05:41.346Z,100768.59
2022-10-05T04:10:48.270Z,100759.56
2022-10-05T04:16:00.240Z,100743.78
2022-10-05T04:21:24.221Z,100735.47
2022-10-05T04:26:34.769Z,100732.78
2022-10-05T04:32:01.471Z,100730.16
2022-10-05T04:37:04.517Z,100721.72
2022-10-05T04:42:55.074Z,100713.22
2022-10-05T04:48:13.294Z,100729.91
2022-10-05T04:53:42.630Z,100719.72
2022-10-05T04:59:02.618Z,100721.25
2022-10-05T05:04:32.252Z,100724.56
2022-10-05T05:09:45.992Z,100717.19
2022-10-05T05:14:59.314Z,100718.81
2022-10-05T05:20:21.076Z,100714.56
2022-10-05T05:25:53.060Z,100704.97
2022-10-05T05:31:30.038Z,100690.00
2022-10-05T05:36:37.249Z,100684.34
2022-10-05T05:41:40.151Z,100706.41
2022-10-05T05:47:02.800Z,100694.09
2022-10-05T05:52:10.802Z,100712.28
2022-10-05T05:57:17.736Z,100700.50
2022-10-05T06:02:21.366Z,100701.03
2022-10-05T06:07:30.172Z,100700.63
2022-10-05T06:12:34.780Z,100706.91
2022-10-05T06:17:42.347Z,100694.78
2022-10-05T06:22:44.907Z,100704.03
2022-10-05T06:28:14.039Z,100720.72
2022-10-05T06:33:45.376Z,100717.00
2022-10-05T06:39:05.320Z,100709.69
2022-10-05T06:44:30.422Z,100706.75
2022-10-05T06:49:54.059Z,100714.75
2022-10-05T06:55:05.122Z,100707.38
2022-10-05T07:00:21.435Z,100703.19
2022-10-05T07:05:47.465Z,100696.94
2022-10-05T07:11:03.429Z,100712.28
2022-10-05T07:16:30.656Z,100691.16
2022-10-05T07:21:39.384Z,100682.88
2022-10-05T07:26:50.931Z,100688.63
2022-10-05T07:32:02.926Z,100693.16
2022-10-05T07:37:42.556Z,100692.94
2022-10-05T07:43:03.233Z,100689.06
2022-10-05T07:48:17.328Z,100698.59
2022-10-05T07:53:23.232Z,100677.75
2022-10-05T07:58:31.419Z,100687.88
2022-10-05T08:03:49.665Z,100688.94
2022-10-05T08:08:54.567Z,100683.38
2022-10-05T08:14:00.733Z,100702.25
2022-10-05T08:19:19.732Z,100686.97
2022-10-05T08:24:31.847Z,100681.50
2022-10-05T08:29:35.339Z,100673.44
2022-10-05T08:34:40.263Z,100675.38
2022-10-05T08:39:50.482Z,100678.47
2022-10-05T08:45:10.136Z,100654.59
2022-10-05T08:50:35.729Z,100655.13
2022-10-05T08:55:43.599Z,100664.28
2022-10-05T09:00:50.945Z,100678.88
2022-10-05T09:06:09.301Z,100675.75
2022-10-05T09:11:17.452Z,100668.72
2022-10-05T09:16:32.643Z,100664.06
2022-10-05T09:21:43.570Z,100661.66
2022-10-05T09:26:58.371Z,100660.31
2022-10-05T09:32:07.008Z,100655.81
2022-10-05T09:37:11.504Z,100656.06
2022-10-05T09:42:25.602Z,100638.22
2022-10-05T09:47:59.773Z,100626.88
2022-10-05T09:53:19.843Z,100626.59
2022-10-05T09:58:48.247Z,100633.06
2022-10-05T10:04:07.960Z,100629.78
2022-10-05T10:09:33.096Z,100626.09
2022-10-05T10:15:02.995Z,100633.69
2022-10-05T10:20:22.918Z,100615.81
2022-10-05T10:25:42.735Z,100621.88
2022-10-05T10:31:04.021Z,100620.97
2022-10-05T10:36:18.510Z,100619.91
2022-10-05T10:41:23.424Z,100615.97
2022-10-05T10:46:44.676Z,100624.09
2022-10-05T10:52:12.164Z,100624.81
2022-10-05T10:57:15.363Z,100618.59
2022-10-05T11:02:38.925Z,100617.38
2022-10-05T11:07:58.373Z,100607.44
2022-10-05T11:13:21.445Z,100625.25
2022-10-05T11:18:46.802Z,100625.31
2022-10-05T11:24:06.072Z,100620.13
2022-10-05T11:29:25.877Z,100615.47
2022-10-05T11:34:34.219Z,100604.09
2022-10-05T11:39:38.039Z,100601.81
2022-10-05T11:44:58.227Z,100591.63
2022-10-05T11:50:14.850Z,100595.47
2022-10-05T11:55:28.211Z,100605.69
2022-10-05T12:00:36.247Z,100592.78
2022-10-05T12:05:59.239Z,100595.72
2022-10-05T12:11:03.399Z,100607.31
2022-10-05T12:16:18.393Z,100591.88
2022-10-05T12:21:41.298Z,100594.91
2022-10-05T12:26:59.239Z,100585.00
2022-10-05T12:32:03.166Z,100574.09
2022-10-05T12:37:23.883Z,100574.97
2022-10-05T12:42:50.272Z,100576.91
2022-10-05T12:48:13.280Z,100565.69
2022-10-05T12:53:52.318Z,100572.53
2022-10-05T12:59:15.357Z,100583.56
2022-10-05T13:04:28.690Z,100569.34
2022-10-05T13:09:44.507Z,100550.59
2022-10-05T13:15:16.771Z,100546.56
2022-10-05T13:20:35.235Z,100547.97
2022-10-05T13:25:39.068Z,100540.59
2022-10-05T13:30:41.436Z,100547.47
2022-10-05T13:35:52.996Z,100536.72
2022-10-05T13:41:08.408Z,100552.66
2022-10-05T13:46:33.219Z,100564.25
2022-10-05T13:51:45.838Z,100522.47
2022-10-05T13:57:33.666Z,100528.16
2022-10-05T14:02:39.373Z,100518.38
2022-10-05T14:07:52.720Z,100511.81
2022-10-05T14:12:54.337Z,100511.22
2022-10-05T14:17:55.859Z,100514.41
2022-10-05T14:23:01.796Z,100499.28
2022-10-05T14:28:24.611Z,100499.28
2022-10-05T14:33:31.120Z,100502.75
2022-10-05T14:38:36.184Z,100511.16
2022-10-05T14:43:37.681Z,100498.13
2022-10-05T14:48:42.595Z,100503.97
2022-10-05T14:53:46.056Z,100509.50
2022-10-05T14:59:00.738Z,100527.09
2022-10-05T15:04:21.147Z,100520.78
2022-10-05T15:10:03.039Z,100510.56
2022-10-05T15:15:26.976Z,100488.13
2022-10-05T15:20:34.009Z,100500.00
2022-10-05T15:25:40.381Z,100502.50
2022-10-05T15:30:47.801Z,100493.19
2022-10-05T15:36:00.457Z,100491.41
2022-10-05T15:41:15.190Z,100483.94
2022-10-05T15:46:34.102Z,100494.25
2022-10-05T15:51:50.736Z,100497.66
2022-10-05T15:57:01.824Z,100503.06
2022-10-05T16:02:07.129Z,100486.69
2022-10-05T16:07:38.988Z,100481.34
2022-10-05T16:12:43.120Z,100453.03
2022-10-05T16:18:09.167Z,100440.97
2022-10-05T16:23:37.478Z,100470.97
2022-10-05T16:29:02.943Z,100461.09
2022-10-05T16:34:26.546Z,100448.19
2022-10-05T16:39:59.109Z,100441.31
2022-10-05T16:45:21.989Z,100460.63
2022-10-05T16:50:30.210Z,100460.81
2022-10-05T16:55:39.975Z,100434.06
2022-10-05T17:00:44.045Z,100439.47
2022-10-05T17:06:20.468Z,100452.22
2022-10-05T17:11:40.116Z,100438.97
2022-10-05T17:17:15.757Z,100437.50
2022-10-05T17:22:33.020Z,100454.22
2022-10-05T17:28:16.541Z,100444.69
2022-10-05T17:33:25.147Z,100460.06
2022-10-05T17:38:35.463Z,100451.88
2022-10-05T17:43:37.028Z,100458.34
2022-10-05T17:49:01.223Z,100458.19
2022-10-05T17:54:50.423Z,100461.63
2022-10-05T17:59:57.743Z,100438.09
2022-10-05T18:05:04.914Z,100450.41
2022-10-05T18:10:09.374Z,100431.63
2022-10-05T18:15:10.685Z,100447.41
2022-10-05T18:20:13.545Z,100441.38
2022-10-05T18:25:25.906Z,100451.28
2022-10-05T18:30:27.417Z,100437.03
2022-10-05T18:35:40.023Z,100434.16
2022-10-05T18:41:01.681Z,100424.56
2022-10-05T18:46:30.596Z,100421.47
2022-10-05T18:51:52.705Z,100420.41
2022-10-05T18:56:54.289Z,100428.22
2022-10-05T19:02:26.082Z,100423.44
2022-10-05T19:07:43.734Z,100415.38
2022-10-05T19:13:04.925Z,100437.13
2022-10-05T19:18:28.990Z,100461.56
2022-10-05T19:23:30.799Z,100460.19
2022-10-05T19:28:36.940Z,100449.63
2022-10-05T19:34:07.335Z,100467.25
2022-10-05T19:39:36.690Z,100466.72
2022-10-05T19:45:05.778Z,100444.22
2022-10-05T19:50:33.782Z,100442.84
2022-10-05T19:55:43.640Z,100450.88
2022-10-05T20:01:11.243Z,100461.88
2022-10-05T20:06:12.718Z,100482.81
2022-10-05T20:11:27.168Z,100496.66
2022-10-05T20:16:48.381Z,100507.78
2022-10-05T20:21:50.536Z,100538.69
2022-10-05T20:27:15.158Z,100559.97
2022-10-05T20:32:20.298Z,100620.56
2022-10-05T20:37:21.894Z,100628.44
2022-10-05T20:42:23.742Z,100633.38
2022-10-05T20:47:25.589Z,100637.16
2022-10-05T20:52:27.076Z,100644.78
2022-10-05T20:57:28.549Z,100648.50
2022-10-05T21:02:30.015Z,100640.81
2022-10-05T21:07:34.045Z,100658.63
2022-10-05T21:12:35.916Z,100677.47
2022-10-05T21:17:37.978Z,100671.28
2022-10-05T21:22:39.445Z,100704.16
2022-10-05T21:27:41.288Z,100697.53
2022-10-05T21:32:44.647Z,100693.19
2022-10-05T21:37:46.474Z,100693.44
2022-10-05T21:42:47.942Z,100700.53
2022-10-05T21:47:49.602Z,100715.88
2022-10-05T21:52:51.853Z,100697.06
2022-10-05T21:57:53.182Z,100720.97
2022-10-05T22:02:54.728Z,100743.06
2022-10-05T22:07:56.196Z,100748.66
2022-10-05T22:13:03.880Z,100773.38
2022-10-05T22:18:05.808Z,100778.03
2022-10-05T22:23:07.296Z,100786.94
2022-10-05T22:28:10.600Z,100807.13
2022-10-05T22:33:13.225Z,100799.09
2022-10-05T22:38:14.748Z,100812.91
2022-10-05T22:43:16.238Z,100801.63
2022-10-05T22:48:18.525Z,100815.81
2022-10-05T22:53:19.866Z,100824.31
2022-10-05T22:58:21.355Z,100842.03
2022-10-05T23:03:22.870Z,100845.72
2022-10-05T23:08:24.554Z,100821.06
2022-10-05T23:13:26.097Z,100860.78
2022-10-05T23:18:27.940Z,100860.19
2022-10-05T23:23:29.630Z,100866.16
2022-10-05T23:28:31.606Z,100867.31
2022-10-05T23:33:33.961Z,100876.31
2022-10-05T23:38:35.694Z,100880.00
2022-10-05T23:43:37.194Z,100911.75
2022-10-05T23:48:38.834Z,100910.53
2022-10-05T23:53:40.299Z,100900.25
2022-10-05T23:58:41.859Z,100973.13
